sensor_id;sensor_type;location;lat;lon;timestamp;pressure;altitude;pressure_sealevel;temperature;humidity
73551;BME280;61816;53.582;10.096;2023-06-10T00:01:45;54169.63;;;-144.73;100.00
73551;BME280;61816;53.582;10.096;2023-06-10T00:04:13;54167.56;;;-144.73;100.00
73551;BME280;61816;53.582;10.096;2023-06-10T00:06:40;54157.31;;;-144.73;100.00
73551;BME280;61816;53.582;10.096;2023-06-10T00:09:06;54194.25;;;-144.73;100.00
73551;BME280;61816;53.582;10.096;2023-06-10T00:11:36;54206.56;;;-144.73;100.00
73551;BME280;61816;53.582;10.096;2023-06-10T00:14:03;54210.66;;;-144.73;100.00
73551;BME280;61816;53.582;10.096;2023-06-10T00:16:28;54218.88;;;-144.73;100.00
73551;BME280;61816;53.582;10.096;2023-06-10T00:18:54;54190.13;;;-144.73;100.00
73551;BME280;61816;53.582;10.096;2023-06-10T00:21:30;54181.94;;;-144.73;100.00
73551;BME280;61816;53.582;10.096;2023-06-10T00:24:03;54171.66;;;-144.73;100.00
73551;BME280;61816;53.582;10.096;2023-06-10T00:26:28;54173.72;;;-144.73;100.00
73551;BME280;61816;53.582;10.096;2023-06-10T00:28:54;54235.28;;;-144.73;100.00
73551;BME280;61816;53.582;10.096;2023-06-10T00:31:19;54153.19;;;-144.73;100.00
73551;BME280;61816;53.582;10.096;2023-06-10T00:33:44;54210.66;;;-144.73;100.00
73551;BME280;61816;53.582;10.096;2023-06-10T00:36:10;54181.94;;;-144.73;100.00
73551;BME280;61816;53.582;10.096;2023-06-10T00:38:35;54157.31;;;-144.73;100.00
73551;BME280;61816;53.582;10.096;2023-06-10T00:41:00;54157.31;;;-144.73;100.00
73551;BME280;61816;53.582;10.096;2023-06-10T00:43:26;54181.94;;;-144.73;100.00
73551;BME280;61816;53.582;10.096;2023-06-10T00:45:51;54177.81;;;-144.73;100.00
73551;BME280;61816;53.582;10.096;2023-06-10T00:48:17;54145.00;;;-144.73;100.00
73551;BME280;61816;53.582;10.096;2023-06-10T00:50:44;54194.25;;;-144.73;100.00
73551;BME280;61816;53.582;10.096;2023-06-10T00:53:10;54198.34;;;-144.73;100.00
73551;BME280;61816;53.582;10.096;2023-06-10T00:55:37;54151.16;;;-144.73;100.00
73551;BME280;61816;53.582;10.096;2023-06-10T00:58:03;54202.44;;;-144.73;100.00
73551;BME280;61816;53.582;10.096;2023-06-10T01:00:29;54235.28;;;-144.73;100.00
73551;BME280;61816;53.582;10.096;2023-06-10T01:02:54;54181.94;;;-144.73;100.00
73551;BME280;61816;53.582;10.096;2023-06-10T01:05:20;54165.50;;;-144.73;100.00
73551;BME280;61816;53.582;10.096;2023-06-10T01:08:16;54167.56;;;-144.73;100.00
73551;BME280;61816;53.582;10.096;2023-06-10T01:10:53;54218.88;;;-144.73;100.00
73551;BME280;61816;53.582;10.096;2023-06-10T01:13:21;54177.81;;;-144.73;100.00
73551;BME280;61816;53.582;10.096;2023-06-10T01:15:49;54177.81;;;-144.73;100.00
73551;BME280;61816;53.582;10.096;2023-06-10T01:18:15;54202.44;;;-144.73;100.00
73551;BME280;61816;53.582;10.096;2023-06-10T01:20:42;54198.34;;;-144.73;100.00
73551;BME280;61816;53.582;10.096;2023-06-10T01:23:09;54202.44;;;-144.73;100.00
73551;BME280;61816;53.582;10.096;2023-06-10T01:25:39;54194.25;;;-144.73;100.00
73551;BME280;61816;53.582;10.096;2023-06-10T01:28:17;54190.13;;;-144.73;100.00
73551;BME280;61816;53.582;10.096;2023-06-10T01:30:56;54181.94;;;-144.73;100.00
73551;BME280;61816;53.582;10.096;2023-06-10T01:33:33;54200.41;;;-144.73;100.00
73551;BME280;61816;53.582;10.096;2023-06-10T01:36:01;54181.94;;;-144.73;100.00
73551;BME280;61816;53.582;10.096;2023-06-10T01:38:30;54153.19;;;-144.73;100.00
73551;BME280;61816;53.582;10.096;2023-06-10T01:40:57;54169.63;;;-144.73;100.00
73551;BME280;61816;53.582;10.096;2023-06-10T01:43:23;54177.81;;;-144.73;100.00
73551;BME280;61816;53.582;10.096;2023-06-10T01:45:48;54169.63;;;-144.73;100.00
73551;BME280;61816;53.582;10.096;2023-06-10T01:48:14;54210.66;;;-144.73;100.00
73551;BME280;61816;53.582;10.096;2023-06-10T01:50:39;54149.09;;;-144.73;100.00
73551;BME280;61816;53.582;10.096;2023-06-10T01:53:05;54190.13;;;-144.73;100.00
73551;BME280;61816;53.582;10.096;2023-06-10T01:55:31;54173.72;;;-144.73;100.00
73551;BME280;61816;53.582;10.096;2023-06-10T01:57:56;54175.78;;;-144.73;100.00
73551;BME280;61816;53.582;10.096;2023-06-10T02:00:21;54169.63;;;-144.73;100.00
73551;BME280;61816;53.582;10.096;2023-06-10T02:02:47;54157.31;;;-144.73;100.00
73551;BME280;61816;53.582;10.096;2023-06-10T02:05:12;54181.94;;;-144.73;100.00
73551;BME280;61816;53.582;10.096;2023-06-10T02:07:37;54202.44;;;-144.73;100.00
73551;BME280;61816;53.582;10.096;2023-06-10T02:10:04;54210.66;;;-144.73;100.00
73551;BME280;61816;53.582;10.096;2023-06-10T02:12:30;54192.19;;;-144.73;100.00
73551;BME280;61816;53.582;10.096;2023-06-10T02:14:55;54225.03;;;-144.73;100.00
73551;BME280;61816;53.582;10.096;2023-06-10T02:17:20;54186.03;;;-144.73;100.00
73551;BME280;61816;53.582;10.096;2023-06-10T02:19:46;54220.94;;;-144.73;100.00
73551;BME280;61816;53.582;10.096;2023-06-10T02:22:19;54134.72;;;-144.73;100.00
73551;BME280;61816;53.582;10.096;2023-06-10T02:24:45;54169.63;;;-144.73;100.00
73551;BME280;61816;53.582;10.096;2023-06-10T02:27:10;54173.72;;;-144.73;100.00
73551;BME280;61816;53.582;10.096;2023-06-10T02:29:36;54155.25;;;-144.73;100.00
73551;BME280;61816;53.582;10.096;2023-06-10T02:32:02;54188.09;;;-144.73;100.00
73551;BME280;61816;53.582;10.096;2023-06-10T02:34:28;54210.66;;;-144.73;100.00
73551;BME280;61816;53.582;10.096;2023-06-10T02:36:54;54218.88;;;-144.73;100.00
73551;BME280;61816;53.582;10.096;2023-06-10T02:39:21;54173.72;;;-144.73;100.00
73551;BME280;61816;53.582;10.096;2023-06-10T02:41:47;54227.09;;;-144.73;100.00
73551;BME280;61816;53.582;10.096;2023-06-10T02:44:12;54171.66;;;-144.73;100.00
73551;BME280;61816;53.582;10.096;2023-06-10T02:46:37;54177.81;;;-144.73;100.00
73551;BME280;61816;53.582;10.096;2023-06-10T02:49:03;54194.25;;;-144.73;100.00
73551;BME280;61816;53.582;10.096;2023-06-10T02:51:28;54186.03;;;-144.73;100.00
73551;BME280;61816;53.582;10.096;2023-06-10T02:53:53;54202.44;;;-144.73;100.00
73551;BME280;61816;53.582;10.096;2023-06-10T02:56:19;54186.03;;;-144.73;100.00
73551;BME280;61816;53.582;10.096;2023-06-10T02:58:45;54190.13;;;-144.73;100.00
73551;BME280;61816;53.582;10.096;2023-06-10T03:01:12;54190.13;;;-144.73;100.00
73551;BME280;61816;53.582;10.096;2023-06-10T03:03:37;54202.44;;;-144.73;100.00
73551;BME280;61816;53.582;10.096;2023-06-10T03:06:06;54227.09;;;-144.73;100.00
73551;BME280;61816;53.582;10.096;2023-06-10T03:08:31;54177.81;;;-144.73;100.00
73551;BME280;61816;53.582;10.096;2023-06-10T03:10:57;54210.66;;;-144.73;100.00
73551;BME280;61816;53.582;10.096;2023-06-10T03:13:23;54210.66;;;-144.73;100.00
73551;BME280;61816;53.582;10.096;2023-06-10T03:15:49;54210.66;;;-144.73;100.00
73551;BME280;61816;53.582;10.096;2023-06-10T03:18:14;54194.25;;;-144.73;100.00
73551;BME280;61816;53.582;10.096;2023-06-10T03:20:40;54239.41;;;-144.73;100.00
73551;BME280;61816;53.582;10.096;2023-06-10T03:23:05;54173.72;;;-144.73;100.00
73551;BME280;61816;53.582;10.096;2023-06-10T03:25:34;54163.47;;;-144.73;100.00
73551;BME280;61816;53.582;10.096;2023-06-10T03:28:00;54210.66;;;-144.73;100.00
73551;BME280;61816;53.582;10.096;2023-06-10T03:30:27;54198.34;;;-144.73;100.00
73551;BME280;61816;53.582;10.096;2023-06-10T03:32:52;54186.03;;;-144.73;100.00
73551;BME280;61816;53.582;10.096;2023-06-10T03:35:18;54202.44;;;-144.73;100.00
73551;BME280;61816;53.582;10.096;2023-06-10T03:37:43;54169.63;;;-144.73;100.00
73551;BME280;61816;53.582;10.096;2023-06-10T03:40:09;54198.34;;;-144.73;100.00
73551;BME280;61816;53.582;10.096;2023-06-10T03:42:34;54202.44;;;-144.73;100.00
73551;BME280;61816;53.582;10.096;2023-06-10T03:45:00;54206.56;;;-144.73;100.00
73551;BME280;61816;53.582;10.096;2023-06-10T03:47:26;54227.09;;;-144.73;100.00
73551;BME280;61816;53.582;10.096;2023-06-10T03:49:51;54218.88;;;-144.73;100.00
73551;BME280;61816;53.582;10.096;2023-06-10T03:52:17;54206.56;;;-144.73;100.00
73551;BME280;61816;53.582;10.096;2023-06-10T03:54:42;54218.88;;;-144.73;100.00
73551;BME280;61816;53.582;10.096;2023-06-10T03:57:08;54198.34;;;-144.73;100.00
73551;BME280;61816;53.582;10.096;2023-06-10T03:59:33;54190.13;;;-144.73;100.00
73551;BME280;61816;53.582;10.096;2023-06-10T04:01:58;54194.25;;;-144.73;100.00
73551;BME280;61816;53.582;10.096;2023-06-10T04:04:25;54206.56;;;-144.73;100.00
73551;BME280;61816;53.582;10.096;2023-06-10T04:06:50;54225.03;;;-144.73;100.00
73551;BME280;61816;53.582;10.096;2023-06-10T04:09:16;54210.66;;;-144.73;100.00
73551;BME280;61816;53.582;10.096;2023-06-10T04:11:42;54227.09;;;-144.73;100.00
73551;BME280;61816;53.582;10.096;2023-06-10T04:14:08;54173.72;;;-144.73;100.00
73551;BME280;61816;53.582;10.096;2023-06-10T04:16:33;54231.19;;;-144.73;100.00
73551;BME280;61816;53.582;10.096;2023-06-10T04:19:00;54227.09;;;-144.73;100.00
73551;BME280;61816;53.582;10.096;2023-06-10T04:21:26;54194.25;;;-144.73;100.00
73551;BME280;61816;53.582;10.096;2023-06-10T04:23:52;54190.13;;;-144.73;100.00
73551;BME280;61816;53.582;10.096;2023-06-10T04:29:32;54235.28;;;-144.73;100.00
73551;BME280;61816;53.582;10.096;2023-06-10T04:31:57;54181.94;;;-144.73;100.00
73551;BME280;61816;53.582;10.096;2023-06-10T04:34:23;54186.03;;;-144.73;100.00
73551;BME280;61816;53.582;10.096;2023-06-10T04:36:48;54190.13;;;-144.73;100.00
73551;BME280;61816;53.582;10.096;2023-06-10T04:39:13;54200.41;;;-144.73;100.00
73551;BME280;61816;53.582;10.096;2023-06-10T04:41:41;54177.81;;;-144.73;100.00
73551;BME280;61816;53.582;10.096;2023-06-10T04:44:07;54210.66;;;-144.73;100.00
73551;BME280;61816;53.582;10.096;2023-06-10T04:46:32;54181.94;;;-144.73;100.00
73551;BME280;61816;53.582;10.096;2023-06-10T04:48:58;54210.66;;;-144.73;100.00
73551;BME280;61816;53.582;10.096;2023-06-10T04:51:23;54202.44;;;-144.73;100.00
73551;BME280;61816;53.582;10.096;2023-06-10T04:53:49;54231.19;;;-144.73;100.00
73551;BME280;61816;53.582;10.096;2023-06-10T04:56:14;54251.72;;;-144.73;100.00
73551;BME280;61816;53.582;10.096;2023-06-10T04:58:41;54222.97;;;-144.73;100.00
73551;BME280;61816;53.582;10.096;2023-06-10T05:01:06;54220.94;;;-144.73;100.00
73551;BME280;61816;53.582;10.096;2023-06-10T05:03:31;54186.03;;;-144.73;100.00
73551;BME280;61816;53.582;10.096;2023-06-10T05:05:57;54194.25;;;-144.73;100.00
73551;BME280;61816;53.582;10.096;2023-06-10T05:08:22;54210.66;;;-144.73;100.00
73551;BME280;61816;53.582;10.096;2023-06-10T05:10:47;54186.03;;;-144.73;100.00
73551;BME280;61816;53.582;10.096;2023-06-10T05:13:13;54222.97;;;-144.73;100.00
73551;BME280;61816;53.582;10.096;2023-06-10T05:15:38;54212.72;;;-144.73;100.00
73551;BME280;61816;53.582;10.096;2023-06-10T05:18:03;54210.66;;;-144.73;100.00
73551;BME280;61816;53.582;10.096;2023-06-10T05:20:29;54214.78;;;-144.73;100.00
73551;BME280;61816;53.582;10.096;2023-06-10T05:22:55;54235.28;;;-144.73;100.00
73551;BME280;61816;53.582;10.096;2023-06-10T05:25:20;54198.34;;;-144.73;100.00
73551;BME280;61816;53.582;10.096;2023-06-10T05:27:46;54210.66;;;-144.73;100.00
73551;BME280;61816;53.582;10.096;2023-06-10T05:30:11;54218.88;;;-144.73;100.00
73551;BME280;61816;53.582;10.096;2023-06-10T05:32:37;54190.13;;;-144.73;100.00
73551;BME280;61816;53.582;10.096;2023-06-10T05:35:02;54239.41;;;-144.73;100.00
73551;BME280;61816;53.582;10.096;2023-06-10T05:37:29;54231.19;;;-144.73;100.00
73551;BME280;61816;53.582;10.096;2023-06-10T05:39:55;54179.88;;;-144.73;100.00
73551;BME280;61816;53.582;10.096;2023-06-10T05:42:20;54239.41;;;-144.73;100.00
73551;BME280;61816;53.582;10.096;2023-06-10T05:44:46;54198.34;;;-144.73;100.00
73551;BME280;61816;53.582;10.096;2023-06-10T05:47:11;54202.44;;;-144.73;100.00
73551;BME280;61816;53.582;10.096;2023-06-10T05:49:36;54235.28;;;-144.73;100.00
73551;BME280;61816;53.582;10.096;2023-06-10T05:52:02;54218.88;;;-144.73;100.00
73551;BME280;61816;53.582;10.096;2023-06-10T05:54:27;54241.44;;;-144.73;100.00
73551;BME280;61816;53.582;10.096;2023-06-10T05:56:53;54181.94;;;-144.73;100.00
73551;BME280;61816;53.582;10.096;2023-06-10T05:59:18;54210.66;;;-144.73;100.00
73551;BME280;61816;53.582;10.096;2023-06-10T06:01:43;54247.59;;;-144.73;100.00
73551;BME280;61816;53.582;10.096;2023-06-10T06:04:09;54169.63;;;-144.73;100.00
73551;BME280;61816;53.582;10.096;2023-06-10T06:06:35;54192.19;;;-144.73;100.00
73551;BME280;61816;53.582;10.096;2023-06-10T06:09:00;54251.72;;;-144.73;100.00
73551;BME280;61816;53.582;10.096;2023-06-10T06:11:26;54210.66;;;-144.73;100.00
73551;BME280;61816;53.582;10.096;2023-06-10T06:13:51;54210.66;;;-144.73;100.00
73551;BME280;61816;53.582;10.096;2023-06-10T06:16:17;54210.66;;;-144.73;100.00
73551;BME280;61816;53.582;10.096;2023-06-10T06:18:43;54202.44;;;-144.73;100.00
73551;BME280;61816;53.582;10.096;2023-06-10T06:21:09;54222.97;;;-144.73;99.14
73551;BME280;61816;53.582;10.096;2023-06-10T06:23:34;54259.91;;;-144.73;99.11
73551;BME280;61816;53.582;10.096;2023-06-10T06:26:00;54235.28;;;-144.73;100.00
73551;BME280;61816;53.582;10.096;2023-06-10T06:28:25;54237.34;;;-144.73;100.00
73551;BME280;61816;53.582;10.096;2023-06-10T06:30:57;54243.50;;;-144.73;100.00
73551;BME280;61816;53.582;10.096;2023-06-10T06:33:22;54186.03;;;-144.73;100.00
73551;BME280;61816;53.582;10.096;2023-06-10T06:35:48;54181.94;;;-144.73;100.00
73551;BME280;61816;53.582;10.096;2023-06-10T06:38:13;54231.19;;;-144.73;99.31
73551;BME280;61816;53.582;10.096;2023-06-10T06:40:38;54190.13;;;-144.73;98.56
73551;BME280;61816;53.582;10.096;2023-06-10T06:43:04;54171.66;;;-144.73;99.61
73551;BME280;61816;53.582;10.096;2023-06-10T06:45:29;54210.66;;;-144.73;99.34
73551;BME280;61816;53.582;10.096;2023-06-10T06:47:54;54231.19;;;-144.73;98.21
73551;BME280;61816;53.582;10.096;2023-06-10T06:50:20;54227.09;;;-144.73;96.42
73551;BME280;61816;53.582;10.096;2023-06-10T06:52:46;54235.28;;;-144.73;95.81
73551;BME280;61816;53.582;10.096;2023-06-10T06:55:11;54216.81;;;-144.73;95.51
73551;BME280;61816;53.582;10.096;2023-06-10T06:57:37;54210.66;;;-144.73;94.94
73551;BME280;61816;53.582;10.096;2023-06-10T07:00:03;54231.19;;;-144.73;94.53
73551;BME280;61816;53.582;10.096;2023-06-10T07:02:29;54202.44;;;-144.73;93.74
73551;BME280;61816;53.582;10.096;2023-06-10T07:04:57;54206.56;;;-144.73;92.77
73551;BME280;61816;53.582;10.096;2023-06-10T07:07:24;54194.25;;;-144.73;90.29
73551;BME280;61816;53.582;10.096;2023-06-10T07:09:49;54202.44;;;-144.73;90.67
73551;BME280;61816;53.582;10.096;2023-06-10T07:12:18;54214.78;;;-144.73;92.29
73551;BME280;61816;53.582;10.096;2023-06-10T07:14:56;54227.09;;;-144.73;90.04
73551;BME280;61816;53.582;10.096;2023-06-10T07:17:22;54194.25;;;-144.73;87.41
73551;BME280;61816;53.582;10.096;2023-06-10T07:19:54;54231.19;;;-144.73;86.88
73551;BME280;61816;53.582;10.096;2023-06-10T07:22:23;54198.34;;;-144.73;86.68
73551;BME280;61816;53.582;10.096;2023-06-10T07:24:51;54177.81;;;-144.73;87.78
73551;BME280;61816;53.582;10.096;2023-06-10T07:27:23;54181.94;;;-144.73;86.96
73551;BME280;61816;53.582;10.096;2023-06-10T07:29:51;54145.00;;;-144.73;86.31
73551;BME280;61816;53.582;10.096;2023-06-10T07:32:17;54186.03;;;-144.73;84.42
73551;BME280;61816;53.582;10.096;2023-06-10T07:34:43;54190.13;;;-144.73;85.06
73551;BME280;61816;53.582;10.096;2023-06-10T07:37:08;54149.09;;;-144.73;83.41
73551;BME280;61816;53.582;10.096;2023-06-10T07:39:34;54186.03;;;-144.73;80.67
73551;BME280;61816;53.582;10.096;2023-06-10T07:42:00;54153.19;;;-144.73;79.42
73551;BME280;61816;53.582;10.096;2023-06-10T07:44:26;54194.25;;;-144.73;77.22
73551;BME280;61816;53.582;10.096;2023-06-10T07:46:51;54181.94;;;-144.73;78.80
73551;BME280;61816;53.582;10.096;2023-06-10T07:49:19;54157.31;;;-144.73;77.07
73551;BME280;61816;53.582;10.096;2023-06-10T07:51:45;54177.81;;;-144.73;77.76
73551;BME280;61816;53.582;10.096;2023-06-10T07:54:10;54173.72;;;-144.73;76.74
73551;BME280;61816;53.582;10.096;2023-06-10T07:56:37;54169.63;;;-144.73;75.14
73551;BME280;61816;53.582;10.096;2023-06-10T07:59:03;54145.00;;;-144.73;76.67
73551;BME280;61816;53.582;10.096;2023-06-10T08:01:28;54161.41;;;-144.73;75.83
73551;BME280;61816;53.582;10.096;2023-06-10T08:03:55;54165.50;;;-144.73;74.92
73551;BME280;61816;53.582;10.096;2023-06-10T08:06:20;54108.03;;;-144.73;74.24
73551;BME280;61816;53.582;10.096;2023-06-10T08:08:45;54163.47;;;-144.73;73.78
73551;BME280;61816;53.582;10.096;2023-06-10T08:11:11;54155.25;;;-144.73;72.12
73551;BME280;61816;53.582;10.096;2023-06-10T08:13:36;54159.34;;;-144.73;71.72
73551;BME280;61816;53.582;10.096;2023-06-10T08:16:02;54149.09;;;-144.73;73.46
73551;BME280;61816;53.582;10.096;2023-06-10T08:18:28;54145.00;;;-144.73;73.04
73551;BME280;61816;53.582;10.096;2023-06-10T08:20:54;54128.56;;;-144.73;74.17
73551;BME280;61816;53.582;10.096;2023-06-10T08:23:19;54128.56;;;-144.73;71.74
73551;BME280;61816;53.582;10.096;2023-06-10T08:25:45;54124.47;;;-144.73;70.73
73551;BME280;61816;53.582;10.096;2023-06-10T08:28:10;54157.31;;;-144.73;70.98
73551;BME280;61816;53.582;10.096;2023-06-10T08:30:35;54169.63;;;-144.73;71.26
73551;BME280;61816;53.582;10.096;2023-06-10T08:33:01;54157.31;;;-144.73;70.02
73551;BME280;61816;53.582;10.096;2023-06-10T08:35:26;54153.19;;;-144.73;69.45
73551;BME280;61816;53.582;10.096;2023-06-10T08:37:51;54136.78;;;-144.73;68.54
73551;BME280;61816;53.582;10.096;2023-06-10T08:40:17;54161.41;;;-144.73;68.84
73551;BME280;61816;53.582;10.096;2023-06-10T08:42:43;54169.63;;;-144.73;66.90
73551;BME280;61816;53.582;10.096;2023-06-10T08:45:16;54128.56;;;-144.73;69.24
73551;BME280;61816;53.582;10.096;2023-06-10T08:47:44;54181.94;;;-144.73;67.36
73551;BME280;61816;53.582;10.096;2023-06-10T08:50:11;54145.00;;;-144.73;68.03
73551;BME280;61816;53.582;10.096;2023-06-10T08:52:37;54106.00;;;-144.73;66.41
73551;BME280;61816;53.582;10.096;2023-06-10T08:55:15;54161.41;;;-144.73;67.75
73551;BME280;61816;53.582;10.096;2023-06-10T08:57:44;54103.94;;;-144.73;64.70
73551;BME280;61816;53.582;10.096;2023-06-10T09:00:11;54124.47;;;-144.73;63.61
73551;BME280;61816;53.582;10.096;2023-06-10T09:02:37;54161.41;;;-144.73;65.95
73551;BME280;61816;53.582;10.096;2023-06-10T09:05:03;54145.00;;;-144.73;65.19
73551;BME280;61816;53.582;10.096;2023-06-10T09:07:30;54108.03;;;-144.73;65.42
73551;BME280;61816;53.582;10.096;2023-06-10T09:10:01;54130.63;;;-144.73;64.38
73551;BME280;61816;53.582;10.096;2023-06-10T09:12:29;54169.63;;;-144.73;64.24
73551;BME280;61816;53.582;10.096;2023-06-10T09:14:54;54169.63;;;-144.73;63.02
73551;BME280;61816;53.582;10.096;2023-06-10T09:17:20;54132.69;;;-144.73;63.41
73551;BME280;61816;53.582;10.096;2023-06-10T09:19:46;54151.16;;;-144.73;64.46
73551;BME280;61816;53.582;10.096;2023-06-10T09:22:11;54190.13;;;-144.73;64.44
73551;BME280;61816;53.582;10.096;2023-06-10T09:24:37;54151.16;;;-144.73;62.28
73551;BME280;61816;53.582;10.096;2023-06-10T09:27:06;54161.41;;;-144.73;62.57
73551;BME280;61816;53.582;10.096;2023-06-10T09:29:53;54103.94;;;-144.73;61.33
73551;BME280;61816;53.582;10.096;2023-06-10T09:32:19;54157.31;;;-144.73;61.67
73551;BME280;61816;53.582;10.096;2023-06-10T09:34:45;54118.31;;;-144.73;60.89
73551;BME280;61816;53.582;10.096;2023-06-10T09:37:11;54145.00;;;-144.73;59.76
73551;BME280;61816;53.582;10.096;2023-06-10T09:39:41;54149.09;;;-144.73;61.73
73551;BME280;61816;53.582;10.096;2023-06-10T09:42:17;54134.72;;;-144.73;62.12
73551;BME280;61816;53.582;10.096;2023-06-10T09:44:49;54157.31;;;-144.73;60.47
73551;BME280;61816;53.582;10.096;2023-06-10T09:47:22;54124.47;;;-144.73;59.72
73551;BME280;61816;53.582;10.096;2023-06-10T09:49:51;54132.69;;;-144.73;58.99
73551;BME280;61816;53.582;10.096;2023-06-10T09:52:26;54128.56;;;-144.73;57.53
73551;BME280;61816;53.582;10.096;2023-06-10T09:54:53;54126.53;;;-144.73;58.92
73551;BME280;61816;53.582;10.096;2023-06-10T09:57:19;54128.56;;;-144.73;57.53
73551;BME280;61816;53.582;10.096;2023-06-10T09:59:46;54108.03;;;-144.73;59.29
73551;BME280;61816;53.582;10.096;2023-06-10T10:02:15;54128.56;;;-144.73;57.97
73551;BME280;61816;53.582;10.096;2023-06-10T10:04:41;54112.16;;;-144.73;57.88
73551;BME280;61816;53.582;10.096;2023-06-10T10:07:08;54128.56;;;-144.73;57.36
73551;BME280;61816;53.582;10.096;2023-06-10T10:09:36;54153.19;;;-144.73;57.08
73551;BME280;61816;53.582;10.096;2023-06-10T10:12:01;54099.84;;;-144.73;56.68
73551;BME280;61816;53.582;10.096;2023-06-10T10:14:28;54136.78;;;-144.73;57.71
73551;BME280;61816;53.582;10.096;2023-06-10T10:16:57;54159.34;;;-144.73;58.65
73551;BME280;61816;53.582;10.096;2023-06-10T10:19:28;54122.41;;;-144.73;56.54
73551;BME280;61816;53.582;10.096;2023-06-10T10:21:59;54095.72;;;-144.73;56.03
73551;BME280;61816;53.582;10.096;2023-06-10T10:24:31;54099.84;;;-144.73;55.26
73551;BME280;61816;53.582;10.096;2023-06-10T10:27:01;54108.03;;;-144.73;55.56
73551;BME280;61816;53.582;10.096;2023-06-10T10:29:31;54110.09;;;-144.73;54.90
73551;BME280;61816;53.582;10.096;2023-06-10T10:31:59;54118.31;;;-144.73;54.25
73551;BME280;61816;53.582;10.096;2023-06-10T10:34:59;54112.16;;;-144.73;54.11
73551;BME280;61816;53.582;10.096;2023-06-10T10:37:30;54120.34;;;-144.73;53.71
73551;BME280;61816;53.582;10.096;2023-06-10T10:39:56;54145.00;;;-144.73;52.88
73551;BME280;61816;53.582;10.096;2023-06-10T10:42:22;54116.25;;;-144.73;55.00
73551;BME280;61816;53.582;10.096;2023-06-10T10:44:49;54103.94;;;-144.73;54.78
73551;BME280;61816;53.582;10.096;2023-06-10T10:47:15;54108.03;;;-144.73;53.60
73551;BME280;61816;53.582;10.096;2023-06-10T10:49:43;54124.47;;;-144.73;55.07
73551;BME280;61816;53.582;10.096;2023-06-10T10:52:12;54097.78;;;-144.73;55.89
73551;BME280;61816;53.582;10.096;2023-06-10T10:54:43;54128.56;;;-144.73;55.62
73551;BME280;61816;53.582;10.096;2023-06-10T10:59:57;54145.00;;;-144.73;53.55
73551;BME280;61816;53.582;10.096;2023-06-10T11:02:42;54099.84;;;-144.73;52.04
73551;BME280;61816;53.582;10.096;2023-06-10T11:05:14;54099.84;;;-144.73;51.60
73551;BME280;61816;53.582;10.096;2023-06-10T11:07:39;54120.34;;;-144.73;51.05
73551;BME280;61816;53.582;10.096;2023-06-10T11:10:12;54099.84;;;-144.73;51.74
73551;BME280;61816;53.582;10.096;2023-06-10T11:12:50;54099.84;;;-144.73;50.12
73551;BME280;61816;53.582;10.096;2023-06-10T11:15:23;54101.88;;;-144.73;50.13
73551;BME280;61816;53.582;10.096;2023-06-10T11:18:14;54108.03;;;-144.73;50.26
73551;BME280;61816;53.582;10.096;2023-06-10T11:25:50;54114.19;;;-144.73;48.69
73551;BME280;61816;53.582;10.096;2023-06-10T11:28:19;54099.84;;;-144.73;48.22
73551;BME280;61816;53.582;10.096;2023-06-10T11:30:45;54075.22;;;-144.73;49.21
73551;BME280;61816;53.582;10.096;2023-06-10T11:33:17;54120.34;;;-144.73;49.22
73551;BME280;61816;53.582;10.096;2023-06-10T11:35:43;54120.34;;;-144.73;48.52
73551;BME280;61816;53.582;10.096;2023-06-10T11:38:09;54081.38;;;-144.73;48.85
73551;BME280;61816;53.582;10.096;2023-06-10T11:40:34;54099.84;;;-144.73;49.78
73551;BME280;61816;53.582;10.096;2023-06-10T11:43:04;54087.53;;;-144.73;50.25
73551;BME280;61816;53.582;10.096;2023-06-10T11:45:30;54046.47;;;-144.73;48.43
73551;BME280;61816;53.582;10.096;2023-06-10T11:47:57;54091.63;;;-144.73;48.96
73551;BME280;61816;53.582;10.096;2023-06-10T11:50:31;54108.03;;;-144.73;50.37
73551;BME280;61816;53.582;10.096;2023-06-10T11:52:56;54091.63;;;-144.73;49.25
73551;BME280;61816;53.582;10.096;2023-06-10T11:55:45;54110.09;;;-144.73;49.40
73551;BME280;61816;53.582;10.096;2023-06-10T11:58:16;54087.53;;;-144.73;48.34
73551;BME280;61816;53.582;10.096;2023-06-10T12:00:49;54095.72;;;-144.73;48.33
73551;BME280;61816;53.582;10.096;2023-06-10T12:03:15;54103.94;;;-144.73;49.01
73551;BME280;61816;53.582;10.096;2023-06-10T12:05:59;54108.03;;;-144.73;47.88
73551;BME280;61816;53.582;10.096;2023-06-10T12:08:25;54071.09;;;-144.73;47.90
73551;BME280;61816;53.582;10.096;2023-06-10T12:10:51;54091.63;;;-144.73;47.19
73551;BME280;61816;53.582;10.096;2023-06-10T12:13:17;54091.63;;;-144.73;44.91
73551;BME280;61816;53.582;10.096;2023-06-10T12:15:45;54071.09;;;-144.73;45.72
73551;BME280;61816;53.582;10.096;2023-06-10T12:18:21;54067.00;;;-144.73;45.13
73551;BME280;61816;53.582;10.096;2023-06-10T12:20:47;54075.22;;;-144.73;44.74
73551;BME280;61816;53.582;10.096;2023-06-10T12:23:14;54062.91;;;-144.73;43.76
73551;BME280;61816;53.582;10.096;2023-06-10T12:25:49;54079.31;;;-144.73;43.72
73551;BME280;61816;53.582;10.096;2023-06-10T12:28:14;54112.16;;;-144.73;43.37
73551;BME280;61816;53.582;10.096;2023-06-10T12:30:40;54036.22;;;-144.73;42.22
73551;BME280;61816;53.582;10.096;2023-06-10T12:33:16;53991.06;;;-144.73;42.27
73551;BME280;61816;53.582;10.096;2023-06-10T12:35:55;54025.94;;;-144.73;42.35
73551;BME280;61816;53.582;10.096;2023-06-10T12:38:22;54087.53;;;-144.73;43.30